KBYL

Williamsburg-Whitley County Airport

Williamsburg, Kentucky, USA
METAR KBYL 161435Z AUTO 16003KT 10SM CLR 00/M04 A3022 RMK AO1
Observed Flight Rules
Dec-16 @ 14:35 UTC (17 minutes ago) Visual Flight Rules
Wind Visibility Clouds
160° at 3 knots 10 miles
  • Clear skies
Temperatures Readings
Current 0°C / 32°F
Dewpoint -4°C / 25°F
Humidity 75%
Altimeter 30.22" Hg
Pressure 1023 hPa
Elevation 359
METAR KBYL 161435Z AUTO 16003KT 10SM CLR 00/M04 A3022 RMK AO1
Observed Flight Rules
Dec-16 @ 14:35 UTC
(17 minutes ago)
VFR
Wind Visibility
160° at 3 knots 10 miles
Clouds
  • Clear skies
Temperature Dewpoint
0°C / 32°F -4°C / 25°F
Humidity Altimeter Pressure
75% 30.22" Hg 1023 hPa